KBCE/BCE METAR and TAF weather

Enter ICAO airport designator
Station Type Date Time Source
KBCE METAR 2022/06/30 12:53 UTC NOAA

KBCE 301253Z AUTO 00000KT 10SM BKN110 12/07 A3037 RMK AO2 SLP158 T01170067


Station Type Date Time Source
KBCE Decoded METAR 2022/06/30 12:53 UTC NOAA

BRYCE CANYON AIRPORT, UT, United States (KBCE) 37-42N 112-09W 2312M
Jun 30, 2022 - 08:53 AM EDT / 2022.06.30 1253 UTC
Wind: Calm:0
Visibility: 10 mile(s):0
Sky conditions: mostly cloudy
Temperature: 53.1 F (11.7 C)
Dew Point: 44.1 F (6.7 C)
Relative Humidity: 71%
Pressure (altimeter): 30.37 in. Hg (1028 hPa)
ob: KBCE 301253Z AUTO 00000KT 10SM BKN110 12/07 A3037 RMK AO2 SLP158 T01170067
cycle: 13

Station Type Date Time Source
KBCE TAF 2022/06/30 12:22 UTC NOAA

TAF KBCE 301120Z 3012/0112 VRB06KT P6SM SCT100 BKN140
FM301600 23014G24KT P6SM SCT120
FM301800 24014G24KT P6SM VCTS SCT100CB BKN120
FM010100 19008KT P6SM SCT120

Example: see airport list